Time;durP1;ratioP1;P1;durP2;ratioP2;P2;SDS_P1;SDS_P2;PMS_P1;PMS_P2;Temp;Humidity;BMP_temperature;BMP_pressure;BME280_temperature;BME280_humidity;BME280_pressure;Samples;Min_cycle;Max_cycle;Signal;HPM_P1;HPM_P2
2021/01/05 00:00:20;;;;;;;21.40;11.32;;;;;;;;;;4934324;29;20047;-77
2021/01/05 00:02:46;;;;;;;22.42;11.43;;;;;;;;;;4906647;29;20075;-76
2021/01/05 00:05:12;;;;;;;23.75;13.48;;;;;;;;;;4935364;29;20047;-76
2021/01/05 00:07:38;;;;;;;22.40;11.77;;;;;;;;;;4933903;29;20566;-76
2021/01/05 00:10:06;;;;;;;25.00;13.50;;;;;;;;;;4935697;29;20200;-76
2021/01/05 00:12:32;;;;;;;20.15;11.43;;;;;;;;;;4918641;29;20083;-76
2021/01/05 00:14:58;;;;;;;20.52;12.15;;;;;;;;;;4918648;29;20079;-76
2021/01/05 00:17:24;;;;;;;19.25;12.05;;;;;;;;;;4933789;29;20048;-76
2021/01/05 00:19:51;;;;;;;19.83;12.07;;;;;;;;;;4918689;29;20059;-76
2021/01/05 00:22:17;;;;;;;23.10;12.82;;;;;;;;;;4934105;29;20055;-76
2021/01/05 00:24:43;;;;;;;21.73;12.07;;;;;;;;;;4932131;29;20551;-76
2021/01/05 00:27:10;;;;;;;23.15;11.98;;;;;;;;;;4933548;29;20052;-76
2021/01/05 00:29:36;;;;;;;20.55;11.85;;;;;;;;;;4909343;29;20052;-76
2021/01/05 00:32:17;;;;;;;23.52;11.85;;;;;;;;;;4902396;29;20268;-76
2021/01/05 00:34:44;;;;;;;21.52;12.52;;;;;;;;;;4905798;29;20083;-76
2021/01/05 00:37:13;;;;;;;22.33;12.50;;;;;;;;;;4934956;29;20162;-76
2021/01/05 00:39:39;;;;;;;22.48;11.88;;;;;;;;;;4918265;29;20566;-76
2021/01/05 00:42:05;;;;;;;21.70;11.77;;;;;;;;;;4935140;29;20119;-76
2021/01/05 00:44:31;;;;;;;24.33;12.15;;;;;;;;;;4933963;29;20059;-76
2021/01/05 00:46:57;;;;;;;20.80;11.93;;;;;;;;;;4933394;29;20079;-76
2021/01/05 00:49:24;;;;;;;20.50;11.60;;;;;;;;;;4917858;29;20056;-76
2021/01/05 00:51:50;;;;;;;21.75;12.20;;;;;;;;;;4933763;29;20079;-76
2021/01/05 00:54:16;;;;;;;21.30;11.80;;;;;;;;;;4917667;29;20055;-76
2021/01/05 00:56:42;;;;;;;21.35;11.38;;;;;;;;;;4934233;29;20447;-76
2021/01/05 00:59:08;;;;;;;21.98;11.60;;;;;;;;;;4917553;29;20060;-76
2021/01/05 01:01:34;;;;;;;21.85;12.38;;;;;;;;;;4934442;29;20052;-76
2021/01/05 01:04:00;;;;;;;21.90;12.43;;;;;;;;;;4933952;29;20077;-76
2021/01/05 01:06:26;;;;;;;22.67;12.20;;;;;;;;;;4923997;29;20083;-76
2021/01/05 01:08:52;;;;;;;24.20;12.27;;;;;;;;;;4932914;29;20052;-76
2021/01/05 01:11:20;;;;;;;25.50;13.35;;;;;;;;;;4933695;29;20059;-76
2021/01/05 01:13:46;;;;;;;26.27;13.75;;;;;;;;;;4933765;29;20127;-76
2021/01/05 01:16:13;;;;;;;24.77;12.90;;;;;;;;;;4934921;29;20052;-76
2021/01/05 01:18:39;;;;;;;25.38;12.32;;;;;;;;;;4934339;29;20055;-77
2021/01/05 01:21:06;;;;;;;21.38;12.95;;;;;;;;;;4934145;29;20063;-76
2021/01/05 01:23:32;;;;;;;21.70;11.95;;;;;;;;;;4918375;29;20119;-76
2021/01/05 01:25:58;;;;;;;23.00;11.85;;;;;;;;;;4934044;29;20055;-77
2021/01/05 01:28:26;;;;;;;23.77;12.90;;;;;;;;;;4935431;29;20055;-76
2021/01/05 01:30:52;;;;;;;43.63;14.10;;;;;;;;;;4935015;29;20507;-77
2021/01/05 01:33:18;;;;;;;24.90;12.30;;;;;;;;;;4935208;29;20471;-77
2021/01/05 01:35:44;;;;;;;26.80;13.25;;;;;;;;;;4949332;29;20073;-76
2021/01/05 01:38:10;;;;;;;23.35;13.18;;;;;;;;;;4934045;29;20423;-76
2021/01/05 01:40:41;;;;;;;19.63;11.40;;;;;;;;;;4934964;29;20467;-76
2021/01/05 01:43:07;;;;;;;26.92;13.55;;;;;;;;;;4933994;29;20582;-76
2021/01/05 01:45:33;;;;;;;22.95;11.98;;;;;;;;;;4949342;29;20499;-76
2021/01/05 01:48:03;;;;;;;21.73;11.05;;;;;;;;;;4933554;29;20052;-76
2021/01/05 01:50:32;;;;;;;24.20;12.25;;;;;;;;;;4933882;29;20056;-77
2021/01/05 01:53:36;;;;;;;22.15;12.90;;;;;;;;;;4918214;29;20177;-76
2021/01/05 01:56:25;;;;;;;23.05;12.60;;;;;;;;;;4925894;29;20092;-76
2021/01/05 01:59:19;;;;;;;25.92;13.32;;;;;;;;;;4901635;29;20063;-76
2021/01/05 02:01:58;;;;;;;22.88;12.45;;;;;;;;;;4915761;29;20048;-76
2021/01/05 02:04:33;;;;;;;25.20;12.80;;;;;;;;;;4915746;29;20063;-76
2021/01/05 02:07:02;;;;;;;24.38;13.40;;;;;;;;;;4915395;29;20467;-76
2021/01/05 02:09:45;;;;;;;28.38;13.95;;;;;;;;;;4915642;29;20048;-76
2021/01/05 02:12:25;;;;;;;28.73;14.35;;;;;;;;;;4914555;29;20084;-76
2021/01/05 02:15:03;;;;;;;25.67;13.52;;;;;;;;;;4899400;29;20401;-76
2021/01/05 02:18:01;;;;;;;26.25;13.38;;;;;;;;;;4899705;29;20052;-76
2021/01/05 02:20:35;;;;;;;26.95;13.70;;;;;;;;;;4914224;29;20084;-76
2021/01/05 02:23:26;;;;;;;25.73;14.07;;;;;;;;;;4903518;29;20404;-76
2021/01/05 02:25:55;;;;;;;27.75;15.00;;;;;;;;;;4902879;29;20056;-76
2021/01/05 02:28:23;;;;;;;26.08;13.52;;;;;;;;;;4929043;29;20106;-76
2021/01/05 02:30:55;;;;;;;26.73;13.75;;;;;;;;;;4937313;29;20051;-76
2021/01/05 02:33:24;;;;;;;24.90;12.50;;;;;;;;;;4937752;29;20423;-76
2021/01/05 02:36:06;;;;;;;26.23;12.55;;;;;;;;;;4937979;29;20094;-76
2021/01/05 02:38:52;;;;;;;25.17;13.17;;;;;;;;;;4938305;29;20499;-76
2021/01/05 02:41:41;;;;;;;24.85;12.90;;;;;;;;;;4936774;29;20296;-76
2021/01/05 02:44:13;;;;;;;24.77;12.95;;;;;;;;;;4937111;29;20076;-76
2021/01/05 02:46:47;;;;;;;25.98;13.52;;;;;;;;;;4937854;29;20110;-76
2021/01/05 02:49:34;;;;;;;25.92;13.15;;;;;;;;;;4938039;29;20491;-76
2021/01/05 02:52:38;;;;;;;24.90;11.90;;;;;;;;;;4936966;29;20072;-76
2021/01/05 02:55:07;;;;;;;25.42;13.25;;;;;;;;;;4937910;29;20099;-76
2021/01/05 02:57:40;;;;;;;26.58;12.93;;;;;;;;;;4937823;29;20507;-76
2021/01/05 03:00:24;;;;;;;23.35;12.75;;;;;;;;;;4936702;29;20060;-76
2021/01/05 03:03:19;;;;;;;24.65;12.65;;;;;;;;;;4937833;29;20052;-76
2021/01/05 03:06:08;;;;;;;28.13;13.43;;;;;;;;;;4936464;29;20083;-76
2021/01/05 03:08:34;;;;;;;25.92;13.20;;;;;;;;;;4923167;29;20146;-76
2021/01/05 03:11:03;;;;;;;25.63;12.55;;;;;;;;;;4920652;29;20110;-76
2021/01/05 03:13:48;;;;;;;26.17;12.90;;;;;;;;;;4921098;29;20107;-77
2021/01/05 03:16:35;;;;;;;25.30;14.70;;;;;;;;;;4936086;29;20080;-76
2021/01/05 03:19:12;;;;;;;28.60;14.10;;;;;;;;;;4935981;29;20531;-76
2021/01/05 03:21:40;;;;;;;27.35;14.13;;;;;;;;;;4937084;29;20079;-76
2021/01/05 03:24:07;;;;;;;24.98;13.02;;;;;;;;;;4936461;29;20056;-76
2021/01/05 03:26:41;;;;;;;28.00;14.50;;;;;;;;;;4935930;29;20048;-76
2021/01/05 03:29:08;;;;;;;24.35;13.80;;;;;;;;;;4936597;29;20051;-76
2021/01/05 03:31:40;;;;;;;28.05;14.10;;;;;;;;;;4936112;29;20056;-76
2021/01/05 03:34:06;;;;;;;26.20;13.98;;;;;;;;;;4934798;29;20064;-76
2021/01/05 03:36:33;;;;;;;26.98;14.65;;;;;;;;;;4935945;29;20099;-76
2021/01/05 03:38:59;;;;;;;28.13;14.43;;;;;;;;;;4935597;29;20052;-76
2021/01/05 03:41:25;;;;;;;25.70;13.77;;;;;;;;;;4937197;29;20051;-76
2021/01/05 03:43:51;;;;;;;27.50;14.98;;;;;;;;;;4935894;29;20102;-76
2021/01/05 03:46:17;;;;;;;27.73;14.63;;;;;;;;;;4936783;29;20103;-77
2021/01/05 03:48:43;;;;;;;30.80;14.70;;;;;;;;;;4936740;29;20091;-77
2021/01/05 03:51:09;;;;;;;25.70;14.02;;;;;;;;;;4936903;29;20055;-76
2021/01/05 03:53:35;;;;;;;32.95;14.80;;;;;;;;;;4936913;29;20051;-76
2021/01/05 03:56:02;;;;;;;32.63;15.10;;;;;;;;;;4937364;29;20048;-76
2021/01/05 03:58:28;;;;;;;28.27;14.50;;;;;;;;;;4923559;29;20047;-76
2021/01/05 04:00:54;;;;;;;31.33;15.35;;;;;;;;;;4936823;29;20478;-75
2021/01/05 04:03:20;;;;;;;27.58;14.90;;;;;;;;;;4936849;29;20470;-75
2021/01/05 04:05:46;;;;;;;30.30;14.80;;;;;;;;;;4936226;29;20079;-75
2021/01/05 04:08:12;;;;;;;35.85;17.13;;;;;;;;;;4947568;29;20741;-77
2021/01/05 04:10:38;;;;;;;28.45;15.40;;;;;;;;;;4918526;29;20060;-75
2021/01/05 04:13:05;;;;;;;29.35;14.60;;;;;;;;;;4938226;23;20048;-68
2021/01/05 04:15:31;;;;;;;34.72;16.13;;;;;;;;;;4928222;29;20115;-68
2021/01/05 04:17:58;;;;;;;31.45;16.23;;;;;;;;;;4914611;29;20056;-68
2021/01/05 04:20:26;;;;;;;31.58;15.70;;;;;;;;;;4900246;29;20048;-68
2021/01/05 04:22:52;;;;;;;27.92;15.20;;;;;;;;;;4916031;29;20090;-68
2021/01/05 04:25:19;;;;;;;33.15;15.52;;;;;;;;;;4931738;29;20131;-68
2021/01/05 04:27:46;;;;;;;30.50;14.52;;;;;;;;;;4915854;29;20056;-68
2021/01/05 04:30:25;;;;;;;32.70;15.95;;;;;;;;;;4915573;29;20060;-68
2021/01/05 04:32:53;;;;;;;30.88;15.77;;;;;;;;;;4917184;29;20056;-68
2021/01/05 04:35:19;;;;;;;31.98;16.42;;;;;;;;;;4915817;29;20566;-68
2021/01/05 04:37:45;;;;;;;30.42;16.42;;;;;;;;;;4899056;29;20574;-68
2021/01/05 04:40:31;;;;;;;32.65;15.80;;;;;;;;;;4897011;29;20052;-68
2021/01/05 04:43:23;;;;;;;28.35;14.68;;;;;;;;;;4911280;29;20097;-68
2021/01/05 04:46:11;;;;;;;32.53;16.55;;;;;;;;;;4910387;29;20048;-68
2021/01/05 04:48:41;;;;;;;28.73;15.27;;;;;;;;;;4917108;29;20052;-68
2021/01/05 04:51:18;;;;;;;33.03;15.10;;;;;;;;;;4916779;29;20111;-68
2021/01/05 04:53:54;;;;;;;29.67;15.55;;;;;;;;;;4915649;29;20427;-68
2021/01/05 04:56:22;;;;;;;30.80;15.60;;;;;;;;;;4910534;29;20460;-68
2021/01/05 04:58:53;;;;;;;30.05;15.20;;;;;;;;;;4896588;29;20104;-68
2021/01/05 05:01:24;;;;;;;32.67;16.50;;;;;;;;;;4896737;29;20052;-68
2021/01/05 05:04:32;;;;;;;31.23;17.23;;;;;;;;;;4896595;29;20563;-68
2021/01/05 05:07:10;;;;;;;27.88;15.27;;;;;;;;;;4909059;29;20056;-68
2021/01/05 05:09:55;;;;;;;28.88;15.95;;;;;;;;;;4897710;29;20512;-68
2021/01/05 05:12:49;;;;;;;29.98;15.05;;;;;;;;;;4896300;29;20056;-68
2021/01/05 05:15:36;;;;;;;35.42;17.42;;;;;;;;;;4910779;29;20060;-68
2021/01/05 05:18:31;;;;;;;32.80;16.92;;;;;;;;;;4897289;29;20483;-69
2021/01/05 05:21:14;;;;;;;37.65;17.88;;;;;;;;;;4897310;29;20492;-68
2021/01/05 05:24:18;;;;;;;31.60;14.77;;;;;;;;;;4896395;29;20074;-68
2021/01/05 05:27:05;;;;;;;33.28;17.45;;;;;;;;;;4897358;29;20100;-68
2021/01/05 05:29:47;;;;;;;35.80;15.80;;;;;;;;;;4911627;29;20104;-68
2021/01/05 05:32:43;;;;;;;33.15;17.50;;;;;;;;;;4895966;29;20457;-68
2021/01/05 05:35:34;;;;;;;36.92;16.98;;;;;;;;;;4881792;29;20060;-68
2021/01/05 05:38:02;;;;;;;31.77;16.30;;;;;;;;;;4896977;29;20477;-68
2021/01/05 05:40:40;;;;;;;31.38;16.00;;;;;;;;;;4896066;29;20052;-68
2021/01/05 05:43:29;;;;;;;30.35;15.68;;;;;;;;;;4897062;29;20053;-68
2021/01/05 05:46:13;;;;;;;33.20;17.42;;;;;;;;;;4909078;29;20076;-68
2021/01/05 05:48:58;;;;;;;34.05;17.75;;;;;;;;;;4928980;29;20457;-68
2021/01/05 05:51:37;;;;;;;29.75;15.90;;;;;;;;;;4914780;29;20056;-68
2021/01/05 05:54:11;;;;;;;32.92;16.15;;;;;;;;;;4914554;29;20401;-68
2021/01/05 05:57:06;;;;;;;;;;;;;;;;;;4929393;29;20044;-68
2021/01/05 05:59:39;;;;;;;31.73;16.40;;;;;;;;;;4911156;29;19969;-68
2021/01/05 06:02:05;;;;;;;31.52;17.08;;;;;;;;;;4914491;29;20051;-68
2021/01/05 06:04:34;;;;;;;29.73;15.68;;;;;;;;;;4915728;29;20103;-68
2021/01/05 06:07:00;;;;;;;26.15;15.52;;;;;;;;;;4905560;29;20052;-68
2021/01/05 06:09:26;;;;;;;30.25;15.73;;;;;;;;;;4895720;29;20049;-68
2021/01/05 06:11:54;;;;;;;32.17;16.48;;;;;;;;;;4895398;29;20053;-68
2021/01/05 06:14:20;;;;;;;31.75;15.52;;;;;;;;;;4895518;29;20068;-68
2021/01/05 06:16:46;;;;;;;27.73;15.55;;;;;;;;;;4895538;29;20044;-68
2021/01/05 06:19:12;;;;;;;30.58;16.90;;;;;;;;;;4896611;29;20068;-68
2021/01/05 06:21:38;;;;;;;26.33;15.07;;;;;;;;;;4895510;29;20052;-68
2021/01/05 06:24:05;;;;;;;28.40;16.08;;;;;;;;;;4895759;29;20123;-68
2021/01/05 06:26:31;;;;;;;30.25;15.40;;;;;;;;;;4895089;29;20052;-68
2021/01/05 06:28:57;;;;;;;30.75;16.58;;;;;;;;;;4896519;29;20560;-68
2021/01/05 06:31:24;;;;;;;29.88;17.15;;;;;;;;;;4895459;29;20084;-68
2021/01/05 06:33:50;;;;;;;30.90;16.15;;;;;;;;;;4896615;29;20092;-68
2021/01/05 06:36:16;;;;;;;33.53;17.48;;;;;;;;;;4910994;29;20052;-68
2021/01/05 06:38:42;;;;;;;26.98;15.20;;;;;;;;;;4914147;29;20240;-68
2021/01/05 06:41:08;;;;;;;27.65;15.38;;;;;;;;;;4915099;29;20055;-68
2021/01/05 06:43:34;;;;;;;30.65;17.65;;;;;;;;;;4915326;29;20052;-68
2021/01/05 06:46:00;;;;;;;30.23;16.33;;;;;;;;;;4912201;29;20048;-68
2021/01/05 06:48:26;;;;;;;28.25;15.13;;;;;;;;;;4929869;29;20091;-68
2021/01/05 06:50:52;;;;;;;30.27;16.40;;;;;;;;;;4914037;29;20104;-68
2021/01/05 06:53:18;;;;;;;30.98;15.90;;;;;;;;;;4915233;29;20575;-68
2021/01/05 06:55:44;;;;;;;28.42;14.98;;;;;;;;;;4912509;29;20393;-68
2021/01/05 06:58:10;;;;;;;25.15;14.20;;;;;;;;;;4925698;29;20048;-67
2021/01/05 07:00:36;;;;;;;30.42;16.33;;;;;;;;;;4914285;29;20587;-68
2021/01/05 07:03:02;;;;;;;27.08;14.98;;;;;;;;;;4914255;29;20660;-68
2021/01/05 07:05:28;;;;;;;24.70;14.88;;;;;;;;;;4904254;29;20056;-68
2021/01/05 07:07:54;;;;;;;27.80;14.75;;;;;;;;;;4898019;29;20048;-68
2021/01/05 07:10:21;;;;;;;27.00;15.18;;;;;;;;;;4898601;29;20052;-68
2021/01/05 07:12:47;;;;;;;25.55;14.82;;;;;;;;;;4913937;29;20060;-68
2021/01/05 07:15:17;;;;;;;26.77;14.82;;;;;;;;;;4898366;29;20484;-68
2021/01/05 07:17:44;;;;;;;26.17;13.90;;;;;;;;;;4898601;29;20135;-68
2021/01/05 07:20:11;;;;;;;25.85;14.73;;;;;;;;;;4898380;29;20060;-68
2021/01/05 07:22:37;;;;;;;27.33;15.27;;;;;;;;;;4913884;29;20057;-68
2021/01/05 07:25:05;;;;;;;25.23;13.95;;;;;;;;;;4898463;29;20087;-68
2021/01/05 07:27:31;;;;;;;26.02;14.50;;;;;;;;;;4897988;29;20143;-68
2021/01/05 07:29:57;;;;;;;27.25;14.13;;;;;;;;;;4899669;29;20081;-68
2021/01/05 07:32:23;;;;;;;24.02;13.85;;;;;;;;;;4900152;29;20053;-68
2021/01/05 07:34:49;;;;;;;25.23;14.40;;;;;;;;;;4919713;29;20048;-68
2021/01/05 07:37:18;;;;;;;26.80;13.88;;;;;;;;;;4936901;29;20467;-68
2021/01/05 07:39:44;;;;;;;22.77;13.85;;;;;;;;;;4935878;29;20052;-68
2021/01/05 07:42:26;;;;;;;26.67;14.82;;;;;;;;;;4936104;29;20103;-67
2021/01/05 07:45:03;;;;;;;19.85;11.48;;;;;;;;;;4919788;29;20049;-68
2021/01/05 07:47:37;;;;;;;25.13;14.13;;;;;;;;;;4910651;29;20056;-68
2021/01/05 07:50:07;;;;;;;23.80;14.25;;;;;;;;;;4895622;29;20052;-68
2021/01/05 07:52:38;;;;;;;22.85;13.82;;;;;;;;;;4893631;29;20482;-68
2021/01/05 07:55:13;;;;;;;24.92;14.38;;;;;;;;;;4908331;29;20099;-69
2021/01/05 07:57:39;;;;;;;27.17;15.18;;;;;;;;;;4917233;29;20111;-69
2021/01/05 08:00:09;;;;;;;24.65;13.50;;;;;;;;;;4904410;29;20060;-69
2021/01/05 08:02:36;;;;;;;21.38;13.25;;;;;;;;;;4896364;29;20060;-69
2021/01/05 08:05:06;;;;;;;25.67;14.07;;;;;;;;;;4914646;29;20431;-69
2021/01/05 08:07:32;;;;;;;20.00;13.15;;;;;;;;;;4904175;29;20041;-69
2021/01/05 08:09:58;;;;;;;23.85;13.18;;;;;;;;;;4910656;29;20516;-69
2021/01/05 08:12:24;;;;;;;21.52;12.70;;;;;;;;;;4903124;29;20452;-69
2021/01/05 08:14:50;;;;;;;23.73;13.45;;;;;;;;;;4885535;29;20156;-69
2021/01/05 08:17:16;;;;;;;23.38;13.45;;;;;;;;;;4929990;29;20090;-69
2021/01/05 08:19:43;;;;;;;21.52;12.60;;;;;;;;;;4914673;29;20111;-69
2021/01/05 08:22:09;;;;;;;22.02;13.45;;;;;;;;;;4927880;29;20423;-68
2021/01/05 08:24:35;;;;;;;22.17;13.00;;;;;;;;;;4912349;29;20143;-69
2021/01/05 08:27:01;;;;;;;22.58;13.00;;;;;;;;;;4914504;29;20080;-69
2021/01/05 08:29:28;;;;;;;23.00;13.05;;;;;;;;;;4914150;29;20095;-69
2021/01/05 08:31:55;;;;;;;23.92;13.50;;;;;;;;;;4915129;29;20111;-69
2021/01/05 08:34:21;;;;;;;23.98;12.85;;;;;;;;;;4913799;29;20495;-69
2021/01/05 08:36:47;;;;;;;22.15;12.95;;;;;;;;;;4915091;29;20044;-69
2021/01/05 08:39:16;;;;;;;22.35;12.90;;;;;;;;;;4915018;29;20079;-69
2021/01/05 08:41:43;;;;;;;23.98;13.70;;;;;;;;;;4897989;29;20108;-69
2021/01/05 08:44:10;;;;;;;22.35;14.05;;;;;;;;;;4900713;29;20052;-68
2021/01/05 08:46:36;;;;;;;22.50;13.90;;;;;;;;;;4910039;29;20076;-68
2021/01/05 08:49:03;;;;;;;23.38;14.00;;;;;;;;;;4894724;29;20592;-68
2021/01/05 08:51:30;;;;;;;23.15;14.68;;;;;;;;;;4910641;29;20048;-68
2021/01/05 08:53:56;;;;;;;22.95;14.10;;;;;;;;;;4894112;29;20060;-68
2021/01/05 08:56:24;;;;;;;22.90;14.23;;;;;;;;;;4896052;29;20129;-68
2021/01/05 08:58:50;;;;;;;27.67;13.95;;;;;;;;;;4894488;29;20060;-68
2021/01/05 09:01:16;;;;;;;25.38;14.10;;;;;;;;;;4915575;29;20052;-68
2021/01/05 09:03:43;;;;;;;25.95;14.50;;;;;;;;;;4907615;29;20060;-69
2021/01/05 09:06:09;;;;;;;22.77;14.02;;;;;;;;;;4944113;28;20520;-68
2021/01/05 09:08:35;;;;;;;26.00;14.18;;;;;;;;;;4894643;29;20084;-69
2021/01/05 09:11:05;;;;;;;23.30;13.52;;;;;;;;;;4909958;29;20048;-68
2021/01/05 09:13:33;;;;;;;23.73;14.73;;;;;;;;;;4894153;29;20139;-68
2021/01/05 09:15:59;;;;;;;23.55;13.95;;;;;;;;;;4895174;29;20567;-72
2021/01/05 09:18:25;;;;;;;24.38;13.70;;;;;;;;;;4894766;29;20057;-71
2021/01/05 09:20:52;;;;;;;24.05;14.63;;;;;;;;;;4930099;29;20080;-71
2021/01/05 09:23:22;;;;;;;23.92;14.27;;;;;;;;;;4930918;29;20105;-71
2021/01/05 09:25:52;;;;;;;24.83;13.43;;;;;;;;;;4915864;29;20431;-71
2021/01/05 09:28:19;;;;;;;21.33;12.73;;;;;;;;;;4946701;29;20060;-72
2021/01/05 09:30:46;;;;;;;21.92;12.68;;;;;;;;;;4931667;29;20055;-72
2021/01/05 09:33:13;;;;;;;23.67;13.80;;;;;;;;;;4915165;29;20052;-72
2021/01/05 09:35:39;;;;;;;21.85;13.13;;;;;;;;;;4915963;29;20123;-72
2021/01/05 09:38:08;;;;;;;22.15;12.65;;;;;;;;;;4899154;29;20084;-71
2021/01/05 09:40:41;;;;;;;24.23;14.32;;;;;;;;;;4914481;29;20056;-72
2021/01/05 09:43:08;;;;;;;22.15;14.32;;;;;;;;;;4901905;29;20048;-71
2021/01/05 09:45:34;;;;;;;23.60;13.63;;;;;;;;;;4907269;29;20104;-71
2021/01/05 09:48:14;;;;;;;24.00;12.88;;;;;;;;;;4895958;29;20052;-71
2021/01/05 09:50:42;;;;;;;24.42;12.85;;;;;;;;;;4903310;29;20102;-71
2021/01/05 09:53:09;;;;;;;28.45;15.05;;;;;;;;;;4904313;29;20051;-71
2021/01/05 09:55:37;;;;;;;26.25;14.75;;;;;;;;;;4889432;29;20499;-71
2021/01/05 09:58:03;;;;;;;23.40;13.65;;;;;;;;;;4911654;29;20056;-71
2021/01/05 10:00:29;;;;;;;25.17;13.93;;;;;;;;;;4907486;29;20504;-71
2021/01/05 10:02:55;;;;;;;21.13;13.20;;;;;;;;;;4890061;29;20091;-71
2021/01/05 10:05:22;;;;;;;27.27;13.60;;;;;;;;;;4903184;29;20120;-71
2021/01/05 10:07:48;;;;;;;25.00;14.13;;;;;;;;;;4911267;29;20411;-71
2021/01/05 10:10:17;;;;;;;22.60;13.18;;;;;;;;;;4903040;29;20483;-71
2021/01/05 10:12:43;;;;;;;25.98;14.77;;;;;;;;;;4917128;23;20108;-71
2021/01/05 10:15:10;;;;;;;22.35;12.45;;;;;;;;;;4933632;29;20063;-71
2021/01/05 10:17:36;;;;;;;23.83;13.50;;;;;;;;;;4934678;29;20439;-71
2021/01/05 10:20:05;;;;;;;27.63;14.68;;;;;;;;;;4932627;29;20423;-71
2021/01/05 10:22:31;;;;;;;24.15;13.27;;;;;;;;;;4932299;29;20123;-71
2021/01/05 10:24:57;;;;;;;22.45;12.50;;;;;;;;;;4934255;29;20083;-71
2021/01/05 10:27:24;;;;;;;21.50;13.40;;;;;;;;;;4934231;29;20107;-71
2021/01/05 10:29:50;;;;;;;20.98;13.20;;;;;;;;;;4934367;29;20499;-71
2021/01/05 10:32:16;;;;;;;24.73;14.60;;;;;;;;;;4927277;29;20108;-70
2021/01/05 10:34:43;;;;;;;25.88;15.00;;;;;;;;;;4935152;29;20047;-69
2021/01/05 10:37:10;;;;;;;24.38;13.95;;;;;;;;;;4932521;29;20514;-67
2021/01/05 10:39:36;;;;;;;24.75;13.45;;;;;;;;;;4930440;29;20079;-74
2021/01/05 10:42:03;;;;;;;25.08;13.85;;;;;;;;;;4930354;29;20511;-72
2021/01/05 10:44:30;;;;;;;26.15;13.77;;;;;;;;;;4934739;29;20593;-71
2021/01/05 10:47:00;;;;;;;25.50;14.27;;;;;;;;;;4936417;29;20075;-73
2021/01/05 10:49:26;;;;;;;25.23;14.52;;;;;;;;;;4937041;29;20094;-71
2021/01/05 10:51:54;;;;;;;21.50;12.55;;;;;;;;;;4936887;29;20048;-74
2021/01/05 10:54:21;;;;;;;24.15;14.65;;;;;;;;;;4926465;29;20146;-73
2021/01/05 10:56:58;;;;;;;19.63;12.18;;;;;;;;;;4936227;29;20142;-70
2021/01/05 10:59:41;;;;;;;20.27;13.35;;;;;;;;;;4935351;29;20056;-72
2021/01/05 11:02:09;;;;;;;20.80;12.88;;;;;;;;;;4931754;29;20517;-73
2021/01/05 11:04:36;;;;;;;23.70;13.57;;;;;;;;;;4936553;29;20074;-72
2021/01/05 11:07:10;;;;;;;22.15;13.38;;;;;;;;;;4943833;29;20055;-71
2021/01/05 11:12:45;;;;;;;22.63;12.90;;;;;;;;;;4936007;29;20459;-74
2021/01/05 11:15:15;;;;;;;22.08;13.40;;;;;;;;;;4934355;29;20059;-70
2021/01/05 11:17:44;;;;;;;26.60;15.07;;;;;;;;;;4934484;29;20048;-70
2021/01/05 11:20:18;;;;;;;24.00;14.10;;;;;;;;;;4935039;29;20570;-71
2021/01/05 11:22:49;;;;;;;23.42;13.70;;;;;;;;;;4936062;29;20051;-71
2021/01/05 11:25:26;;;;;;;22.42;13.55;;;;;;;;;;4915411;29;20055;-71
2021/01/05 11:27:52;;;;;;;21.80;13.15;;;;;;;;;;4936200;29;20047;-70
2021/01/05 11:30:23;;;;;;;21.45;13.05;;;;;;;;;;4936331;29;20083;-72
2021/01/05 11:32:50;;;;;;;21.63;13.45;;;;;;;;;;4931889;29;20048;-70
2021/01/05 11:35:17;;;;;;;24.80;13.80;;;;;;;;;;4932531;29;20145;-70
2021/01/05 11:37:44;;;;;;;24.77;13.60;;;;;;;;;;4916932;29;20118;-70
2021/01/05 11:40:11;;;;;;;21.73;12.27;;;;;;;;;;4933536;29;20055;-70
2021/01/05 11:42:38;;;;;;;24.25;12.85;;;;;;;;;;4933980;29;20644;-70
2021/01/05 11:45:06;;;;;;;23.75;13.80;;;;;;;;;;4937975;29;20051;-70
2021/01/05 11:47:32;;;;;;;26.33;14.25;;;;;;;;;;4930427;29;20399;-71
2021/01/05 11:49:59;;;;;;;23.85;13.70;;;;;;;;;;4933559;29;20467;-70
2021/01/05 11:52:25;;;;;;;21.27;13.30;;;;;;;;;;4933520;29;20142;-70
2021/01/05 11:54:52;;;;;;;24.83;14.23;;;;;;;;;;4932433;29;20138;-70
2021/01/05 11:57:18;;;;;;;22.02;13.55;;;;;;;;;;4933736;29;20115;-69
2021/01/05 11:59:44;;;;;;;22.60;13.05;;;;;;;;;;4934380;29;20498;-70
2021/01/05 12:02:10;;;;;;;22.83;14.27;;;;;;;;;;4934512;29;20081;-70
2021/01/05 12:04:36;;;;;;;23.45;13.85;;;;;;;;;;4934359;29;20743;-70
2021/01/05 12:07:02;;;;;;;24.40;13.10;;;;;;;;;;4933416;29;20590;-69
2021/01/05 12:09:28;;;;;;;25.13;13.88;;;;;;;;;;4934679;29;20052;-70
2021/01/05 12:12:02;;;;;;;25.38;13.27;;;;;;;;;;4933361;29;20529;-70
2021/01/05 12:14:28;;;;;;;28.98;14.43;;;;;;;;;;4934239;29;20123;-71
2021/01/05 12:16:57;;;;;;;22.52;14.65;;;;;;;;;;4933905;29;20079;-70
2021/01/05 12:19:26;;;;;;;24.10;13.13;;;;;;;;;;4934621;29;20056;-69
2021/01/05 12:21:58;;;;;;;22.52;13.82;;;;;;;;;;4934054;29;20083;-70
2021/01/05 12:24:26;;;;;;;26.10;12.73;;;;;;;;;;4933938;29;20063;-70
2021/01/05 12:26:55;;;;;;;25.13;14.38;;;;;;;;;;4933832;29;20062;-70
2021/01/05 12:29:24;;;;;;;22.77;12.75;;;;;;;;;;4948911;29;20058;-70
2021/01/05 12:31:52;;;;;;;22.98;14.32;;;;;;;;;;4933837;29;20087;-69
2021/01/05 12:34:21;;;;;;;24.08;13.30;;;;;;;;;;4932606;29;20122;-71
2021/01/05 12:36:47;;;;;;;22.05;13.52;;;;;;;;;;4933101;29;20056;-70
2021/01/05 12:39:16;;;;;;;20.58;13.32;;;;;;;;;;4933950;29;20075;-70
2021/01/05 12:41:42;;;;;;;24.55;13.23;;;;;;;;;;4934013;29;20059;-69
2021/01/05 12:44:09;;;;;;;24.70;13.80;;;;;;;;;;4933529;29;20099;-70
2021/01/05 12:46:37;;;;;;;24.40;12.85;;;;;;;;;;4933745;29;20522;-70
2021/01/05 12:49:05;;;;;;;23.23;15.45;;;;;;;;;;4933614;29;20048;-70
2021/01/05 12:51:42;;;;;;;22.85;14.40;;;;;;;;;;4933297;29;20055;-70
2021/01/05 12:54:15;;;;;;;37.50;20.30;;;;;;;;;;4931637;29;20052;-70
2021/01/05 12:56:58;;;;;;;22.58;14.10;;;;;;;;;;4944168;29;20131;-70
2021/01/05 12:59:24;;;;;;;24.77;14.82;;;;;;;;;;4933632;29;20080;-70
2021/01/05 13:01:58;;;;;;;22.33;13.30;;;;;;;;;;4933485;29;20079;-70
2021/01/05 13:04:25;;;;;;;18.20;11.70;;;;;;;;;;4933025;29;20143;-70
2021/01/05 13:06:51;;;;;;;22.70;14.35;;;;;;;;;;4932880;29;20047;-70
2021/01/05 13:09:17;;;;;;;25.52;13.57;;;;;;;;;;4948203;28;20597;-70
2021/01/05 13:11:44;;;;;;;24.08;14.32;;;;;;;;;;4933640;29;20062;-70
2021/01/05 13:14:15;;;;;;;20.33;12.95;;;;;;;;;;4933295;29;20522;-70
2021/01/05 13:16:41;;;;;;;23.45;14.15;;;;;;;;;;4932911;29;20071;-70
2021/01/05 13:19:11;;;;;;;19.77;13.50;;;;;;;;;;4933013;29;20483;-70
2021/01/05 13:21:42;;;;;;;21.67;12.82;;;;;;;;;;4924281;29;20130;-74
2021/01/05 13:24:13;;;;;;;22.45;12.63;;;;;;;;;;4915264;29;20074;-73
2021/01/05 13:26:39;;;;;;;16.83;11.65;;;;;;;;;;4916932;29;20079;-74
2021/01/05 13:29:22;;;;;;;23.50;12.43;;;;;;;;;;4928291;29;20051;-75
2021/01/05 13:32:36;;;;;;;21.48;12.82;;;;;;;;;;4924025;29;20052;-74
2021/01/05 13:35:03;;;;;;;22.42;12.73;;;;;;;;;;4920434;29;20055;-74
2021/01/05 13:37:33;;;;;;;20.85;13.60;;;;;;;;;;4931829;29;20051;-73
2021/01/05 13:40:00;;;;;;;18.05;11.48;;;;;;;;;;4921247;29;20484;-73
2021/01/05 13:42:26;;;;;;;21.15;12.48;;;;;;;;;;4920635;29;20052;-73
2021/01/05 13:44:52;;;;;;;21.25;11.45;;;;;;;;;;4930287;29;20483;-73
2021/01/05 13:47:21;;;;;;;20.58;12.00;;;;;;;;;;4931062;29;20059;-73
2021/01/05 13:49:47;;;;;;;20.20;12.38;;;;;;;;;;4931760;29;20261;-73
2021/01/05 13:52:17;;;;;;;17.55;10.73;;;;;;;;;;4920696;29;20111;-73
2021/01/05 13:54:44;;;;;;;18.75;12.52;;;;;;;;;;4931592;29;20082;-73
2021/01/05 13:57:18;;;;;;;20.58;12.02;;;;;;;;;;4929406;29;20142;-72
2021/01/05 13:59:44;;;;;;;22.08;12.20;;;;;;;;;;4931269;29;20502;-73
2021/01/05 14:02:10;;;;;;;16.73;11.00;;;;;;;;;;4931221;29;20083;-73
2021/01/05 14:04:36;;;;;;;17.25;10.35;;;;;;;;;;4931626;29;20110;-73
2021/01/05 14:07:08;;;;;;;17.45;11.25;;;;;;;;;;4931675;29;20086;-73
2021/01/05 14:09:34;;;;;;;17.77;10.80;;;;;;;;;;4931574;29;20079;-73
2021/01/05 14:12:00;;;;;;;18.95;10.85;;;;;;;;;;4931280;29;20072;-73
2021/01/05 14:14:29;;;;;;;17.75;10.45;;;;;;;;;;4931336;29;20055;-73
2021/01/05 14:16:57;;;;;;;17.90;11.05;;;;;;;;;;4930698;29;20118;-73
2021/01/05 14:19:24;;;;;;;20.77;12.18;;;;;;;;;;4945127;29;20556;-73
2021/01/05 14:21:51;;;;;;;20.60;11.13;;;;;;;;;;4929952;29;20075;-73
2021/01/05 14:24:20;;;;;;;18.38;12.07;;;;;;;;;;4946670;28;20577;-73
2021/01/05 14:26:47;;;;;;;18.20;11.32;;;;;;;;;;4931945;29;20044;-73
2021/01/05 14:29:13;;;;;;;23.23;13.38;;;;;;;;;;4932391;29;20087;-74
2021/01/05 14:31:40;;;;;;;22.42;14.13;;;;;;;;;;4946630;29;20048;-74
2021/01/05 14:34:06;;;;;;;21.80;13.90;;;;;;;;;;4942413;28;20071;-73
2021/01/05 14:36:34;;;;;;;21.88;12.85;;;;;;;;;;4941649;28;20052;-73
2021/01/05 14:39:01;;;;;;;21.48;13.18;;;;;;;;;;4931235;29;20052;-73